createdAt,value
2024-03-12T00:01:47.300Z,31.33
2024-03-12T00:04:14.419Z,31.57
2024-03-12T00:06:43.557Z,28.67
2024-03-12T00:09:11.017Z,32.03
2024-03-12T00:11:38.708Z,26.17
2024-03-12T00:14:05.958Z,27.73
2024-03-12T00:16:35.398Z,29.03
2024-03-12T00:19:03.837Z,26.23
2024-03-12T00:21:32.104Z,27.13
2024-03-12T00:24:00.017Z,25.70
2024-03-12T00:26:29.553Z,25.33
2024-03-12T00:28:56.853Z,26.17
2024-03-12T00:31:25.719Z,25.20
2024-03-12T00:33:53.031Z,25.10
2024-03-12T00:36:20.066Z,26.90
2024-03-12T00:38:47.971Z,22.30
2024-03-12T00:41:15.457Z,23.47
2024-03-12T00:43:43.664Z,23.67
2024-03-12T00:46:12.669Z,23.87
2024-03-12T00:48:40.094Z,21.93
2024-03-12T00:51:10.265Z,21.63
2024-03-12T00:53:37.373Z,24.50
2024-03-12T00:56:04.789Z,25.43
2024-03-12T00:58:34.468Z,22.57
2024-03-12T01:01:01.954Z,23.07
2024-03-12T01:03:30.461Z,22.10
2024-03-12T01:05:57.729Z,26.43
2024-03-12T01:08:25.115Z,26.03
2024-03-12T01:10:52.631Z,29.83
2024-03-12T01:13:21.625Z,26.53
2024-03-12T01:15:49.448Z,26.03
2024-03-12T01:18:16.758Z,30.27
2024-03-12T01:20:45.117Z,28.80
2024-03-12T01:23:15.031Z,28.93
2024-03-12T01:25:42.709Z,32.33
2024-03-12T01:28:12.310Z,32.50
2024-03-12T01:30:40.980Z,28.83
2024-03-12T01:33:08.684Z,34.23
2024-03-12T01:35:40.566Z,34.23
2024-03-12T01:38:11.417Z,30.43
2024-03-12T01:40:40.182Z,29.23
2024-03-12T01:43:10.814Z,33.83
2024-03-12T01:45:43.476Z,33.83
2024-03-12T01:48:12.325Z,32.83
2024-03-12T01:50:41.119Z,30.67
2024-03-12T01:53:09.619Z,33.30
2024-03-12T01:55:45.021Z,30.67
2024-03-12T01:58:17.730Z,34.60
2024-03-12T02:00:46.696Z,38.27
2024-03-12T02:03:15.182Z,31.23
2024-03-12T02:05:43.113Z,32.10
2024-03-12T02:08:12.023Z,28.67
2024-03-12T02:10:39.682Z,29.63
2024-03-12T02:13:07.448Z,35.03
2024-03-12T02:15:35.520Z,30.07
2024-03-12T02:18:03.185Z,31.73
2024-03-12T02:20:30.516Z,34.07
2024-03-12T02:22:57.610Z,33.97
2024-03-12T02:25:25.283Z,34.27
2024-03-12T02:27:54.221Z,38.17
2024-03-12T02:30:22.962Z,35.37
2024-03-12T02:32:50.943Z,40.30
2024-03-12T02:35:18.697Z,34.27
2024-03-12T02:37:46.409Z,39.30
2024-03-12T02:40:15.197Z,40.03
2024-03-12T02:42:44.812Z,38.93
2024-03-12T02:45:16.811Z,33.00
2024-03-12T02:47:47.331Z,39.73
2024-03-12T02:50:16.673Z,41.07
2024-03-12T02:52:46.476Z,35.93
2024-03-12T02:55:14.218Z,38.30
2024-03-12T02:57:41.521Z,37.10
2024-03-12T03:00:14.363Z,37.33
2024-03-12T03:02:43.499Z,35.27
2024-03-12T03:05:11.618Z,36.27
2024-03-12T03:07:43.620Z,34.87
2024-03-12T03:10:13.284Z,33.50
2024-03-12T03:12:42.108Z,35.40
2024-03-12T03:15:14.160Z,38.80
2024-03-12T03:17:44.519Z,30.60
2024-03-12T03:20:13.300Z,30.07
2024-03-12T03:22:43.216Z,32.83
2024-03-12T03:25:13.224Z,33.10
2024-03-12T03:27:40.456Z,28.27
2024-03-12T03:30:11.533Z,30.50
2024-03-12T03:32:38.690Z,25.87
2024-03-12T03:35:07.344Z,26.03
2024-03-12T03:37:36.805Z,20.23
2024-03-12T03:40:12.292Z,21.67
2024-03-12T03:42:40.574Z,20.80
2024-03-12T03:45:08.469Z,20.60
2024-03-12T03:47:36.050Z,22.97
2024-03-12T03:50:08.304Z,22.27
2024-03-12T03:52:35.649Z,21.63
2024-03-12T03:55:03.082Z,19.43
2024-03-12T03:57:30.496Z,19.73
2024-03-12T03:59:58.091Z,20.70
2024-03-12T04:02:26.128Z,19.50
2024-03-12T04:04:53.227Z,18.90
2024-03-12T04:07:26.510Z,21.97
2024-03-12T04:09:55.584Z,24.40
2024-03-12T04:12:23.741Z,23.93
2024-03-12T04:14:51.144Z,25.33
2024-03-12T04:17:20.196Z,24.37
2024-03-12T04:19:48.979Z,30.87
2024-03-12T04:22:20.421Z,28.70
2024-03-12T04:24:48.145Z,25.00
2024-03-12T04:27:16.185Z,29.07
2024-03-12T04:29:43.915Z,28.47
2024-03-12T04:32:11.647Z,30.30
2024-03-12T04:34:38.796Z,26.47
2024-03-12T04:37:06.878Z,34.30
2024-03-12T04:39:34.692Z,33.77
2024-03-12T04:42:06.678Z,26.63
2024-03-12T04:44:37.159Z,29.17
2024-03-12T04:47:05.325Z,28.43
2024-03-12T04:49:32.434Z,28.30
2024-03-12T04:52:00.003Z,27.10
2024-03-12T04:54:28.269Z,25.70
2024-03-12T04:56:58.103Z,29.83
2024-03-12T04:59:25.380Z,24.53
2024-03-12T05:01:53.725Z,27.47
2024-03-12T05:04:23.885Z,30.53
2024-03-12T05:06:52.012Z,31.77
2024-03-12T05:09:19.876Z,31.47
2024-03-12T05:11:48.836Z,26.20
2024-03-12T05:14:17.048Z,25.43
2024-03-12T05:16:44.114Z,27.33
2024-03-12T05:19:12.774Z,27.03
2024-03-12T05:21:40.273Z,25.87
2024-03-12T05:24:07.642Z,25.77
2024-03-12T05:26:37.538Z,22.77
2024-03-12T05:29:08.460Z,25.60
2024-03-12T05:31:39.445Z,24.90
2024-03-12T05:34:19.629Z,26.07
2024-03-12T05:36:49.992Z,25.67
2024-03-12T05:39:50.306Z,24.80
2024-03-12T05:42:36.314Z,22.47
2024-03-12T05:45:22.206Z,25.03
2024-03-12T05:48:21.258Z,21.23
2024-03-12T05:50:48.497Z,22.10
2024-03-12T05:53:16.581Z,22.10
2024-03-12T05:55:43.725Z,22.83
2024-03-12T05:58:13.777Z,20.93
2024-03-12T06:00:41.421Z,20.40
2024-03-12T06:03:08.451Z,22.43
2024-03-12T06:05:35.524Z,23.97
2024-03-12T06:08:02.764Z,21.67
2024-03-12T06:10:30.232Z,26.47
2024-03-12T06:12:58.061Z,26.27
2024-03-12T06:15:25.202Z,19.50
2024-03-12T06:17:52.425Z,24.07
2024-03-12T06:20:19.723Z,23.13
2024-03-12T06:22:46.863Z,21.90
2024-03-12T06:25:14.135Z,21.87
2024-03-12T06:27:41.902Z,25.00
2024-03-12T06:30:09.659Z,25.13
2024-03-12T06:32:36.848Z,25.00
2024-03-12T06:35:06.095Z,26.67
2024-03-12T06:37:33.373Z,23.97
2024-03-12T06:40:00.660Z,23.80
2024-03-12T06:42:30.910Z,27.23
2024-03-12T06:45:01.496Z,21.80
2024-03-12T06:47:30.195Z,25.13
2024-03-12T06:49:59.785Z,26.87
2024-03-12T06:52:27.959Z,23.47
2024-03-12T06:54:55.216Z,26.43
2024-03-12T06:57:24.149Z,27.53
2024-03-12T06:59:51.495Z,26.80
2024-03-12T07:02:19.268Z,27.33
2024-03-12T07:04:49.921Z,25.60
2024-03-12T07:07:20.848Z,27.57
2024-03-12T07:09:49.539Z,28.47
2024-03-12T07:12:17.868Z,28.63
2024-03-12T07:14:47.211Z,29.33
2024-03-12T07:17:15.583Z,27.30
2024-03-12T07:19:44.413Z,29.67
2024-03-12T07:22:12.421Z,28.87
2024-03-12T07:24:40.832Z,29.43
2024-03-12T07:27:09.716Z,27.10
2024-03-12T07:29:36.788Z,26.93
2024-03-12T07:32:09.294Z,25.30
2024-03-12T07:34:38.343Z,28.53
2024-03-12T07:37:06.337Z,26.33
2024-03-12T07:39:35.563Z,28.43
2024-03-12T07:42:13.470Z,25.13
2024-03-12T07:44:42.530Z,25.70
2024-03-12T07:47:11.331Z,24.57
2024-03-12T07:49:38.953Z,29.03
2024-03-12T07:52:07.277Z,25.57
2024-03-12T07:54:35.130Z,24.83
2024-03-12T07:57:02.753Z,22.27
2024-03-12T07:59:31.751Z,25.10
2024-03-12T08:01:59.493Z,24.10
2024-03-12T08:04:27.385Z,26.10
2024-03-12T08:06:56.028Z,26.47
2024-03-12T08:09:24.527Z,22.63
2024-03-12T08:11:52.339Z,22.37
2024-03-12T08:14:19.901Z,26.43
2024-03-12T08:16:47.610Z,24.00
2024-03-12T08:19:15.011Z,28.80
2024-03-12T08:21:42.726Z,29.37
2024-03-12T08:24:12.003Z,26.23
2024-03-12T08:26:39.438Z,27.80
2024-03-12T08:29:06.640Z,26.40
2024-03-12T08:31:38.718Z,30.83
2024-03-12T08:34:16.981Z,28.43
2024-03-12T08:36:44.432Z,29.27
2024-03-12T08:39:14.362Z,30.40
2024-03-12T08:41:42.902Z,33.90
2024-03-12T08:44:10.810Z,37.40
2024-03-12T08:46:39.215Z,32.93
2024-03-12T08:49:07.064Z,34.23
2024-03-12T08:51:37.081Z,36.47
2024-03-12T08:54:05.451Z,34.63
2024-03-12T08:56:32.748Z,37.23
2024-03-12T08:58:59.898Z,42.90
2024-03-12T09:01:27.177Z,38.20
2024-03-12T09:03:54.443Z,37.10
2024-03-12T09:06:22.031Z,37.53
2024-03-12T09:08:50.762Z,37.47
2024-03-12T09:11:20.745Z,38.23
2024-03-12T09:13:47.996Z,36.53
2024-03-12T09:16:16.137Z,38.50
2024-03-12T09:18:45.123Z,40.77
2024-03-12T09:21:13.841Z,34.47
2024-03-12T09:23:48.259Z,33.20
2024-03-12T09:26:24.222Z,36.47
2024-03-12T09:28:51.745Z,40.87
2024-03-12T09:31:22.759Z,36.80
2024-03-12T09:33:50.271Z,37.63
2024-03-12T09:36:17.419Z,34.27
2024-03-12T09:38:45.570Z,32.13
2024-03-12T09:41:17.584Z,36.27
2024-03-12T09:43:47.938Z,31.83
2024-03-12T09:46:17.712Z,30.73
2024-03-12T09:48:47.897Z,29.73
2024-03-12T09:51:15.674Z,30.93
2024-03-12T09:53:43.654Z,36.10
2024-03-12T09:56:20.316Z,34.17
2024-03-12T09:58:49.162Z,34.37
2024-03-12T10:01:16.689Z,31.37
2024-03-12T10:03:44.946Z,33.80
2024-03-12T10:06:12.098Z,32.43
2024-03-12T10:08:45.309Z,31.60
2024-03-12T10:11:21.070Z,31.37
2024-03-12T10:14:00.590Z,31.37
2024-03-12T10:16:33.940Z,27.67
2024-03-12T10:19:11.414Z,29.37
2024-03-12T10:21:41.559Z,32.97
2024-03-12T10:24:16.389Z,31.73
2024-03-12T10:26:47.353Z,32.73
2024-03-12T10:31:55.678Z,35.23
2024-03-12T10:34:23.057Z,34.73
2024-03-12T10:36:52.825Z,34.17
2024-03-12T10:39:30.898Z,32.53
2024-03-12T10:42:01.111Z,31.83
2024-03-12T10:44:30.633Z,28.37
2024-03-12T10:47:00.615Z,28.90
2024-03-12T10:49:29.672Z,29.63
2024-03-12T10:51:58.153Z,29.13
2024-03-12T10:54:31.283Z,27.20
2024-03-12T10:57:03.869Z,27.47
2024-03-12T10:59:33.057Z,28.17
2024-03-12T11:02:06.059Z,28.40
2024-03-12T11:04:36.514Z,29.27
2024-03-12T11:07:05.131Z,29.70
2024-03-12T11:09:35.240Z,31.57
2024-03-12T11:12:05.204Z,30.67
2024-03-12T11:14:32.636Z,30.60
2024-03-12T11:17:01.616Z,30.93
2024-03-12T11:19:30.793Z,37.30
2024-03-12T11:22:16.077Z,30.87
2024-03-12T11:24:50.016Z,35.80
2024-03-12T11:27:21.226Z,30.83
2024-03-12T11:30:15.789Z,30.43
2024-03-12T11:32:47.189Z,31.50
2024-03-12T11:35:24.624Z,36.47
2024-03-12T11:37:59.671Z,29.23
2024-03-12T11:40:39.212Z,30.33
2024-03-12T11:43:13.009Z,30.33
2024-03-12T11:45:48.201Z,30.23
2024-03-12T11:48:32.976Z,29.27
2024-03-12T11:51:01.219Z,32.70
2024-03-12T11:53:31.957Z,31.43
2024-03-12T11:56:12.286Z,31.37
2024-03-12T11:58:48.852Z,31.67
2024-03-12T12:01:34.579Z,29.33
2024-03-12T12:04:09.052Z,30.33
2024-03-12T12:06:36.757Z,30.33
2024-03-12T12:09:11.751Z,32.30
2024-03-12T12:11:41.657Z,29.93
2024-03-12T12:14:11.069Z,29.63
2024-03-12T12:16:39.310Z,27.73
2024-03-12T12:19:19.081Z,31.67
2024-03-12T12:21:51.132Z,32.67
2024-03-12T12:24:18.699Z,29.33
2024-03-12T12:26:46.954Z,29.73
2024-03-12T12:29:16.274Z,29.80
2024-03-12T12:31:43.819Z,30.87
2024-03-12T12:34:12.414Z,31.40
2024-03-12T12:36:45.225Z,32.63
2024-03-12T12:39:16.112Z,29.63
2024-03-12T12:41:47.774Z,32.83
2024-03-12T12:44:22.014Z,29.03
2024-03-12T12:46:50.073Z,26.50
2024-03-12T12:49:18.427Z,29.67
2024-03-12T12:51:47.515Z,31.27
2024-03-12T12:54:22.010Z,33.83
2024-03-12T12:56:50.738Z,27.83
2024-03-12T12:59:24.840Z,28.55
2024-03-12T13:01:52.849Z,28.80
2024-03-12T13:04:28.293Z,28.40
2024-03-12T13:06:58.172Z,31.47
2024-03-12T13:09:42.548Z,33.30
2024-03-12T13:12:10.569Z,29.07
2024-03-12T13:14:43.110Z,27.90
2024-03-12T13:17:11.262Z,27.92
2024-03-12T13:19:38.717Z,29.63
2024-03-12T13:22:10.418Z,30.85
2024-03-12T13:24:43.556Z,27.67
2024-03-12T13:27:11.132Z,29.95
2024-03-12T13:29:38.360Z,30.77
2024-03-12T13:32:06.582Z,30.17
2024-03-12T13:34:33.802Z,27.10
2024-03-12T13:37:01.895Z,28.52
2024-03-12T13:39:30.673Z,30.13
2024-03-12T13:41:57.850Z,28.30
2024-03-12T13:44:24.880Z,38.63
2024-03-12T13:46:51.905Z,28.73
2024-03-12T13:49:19.371Z,29.42
2024-03-12T13:51:47.686Z,26.77
2024-03-12T13:54:15.973Z,26.67
2024-03-12T13:56:43.932Z,27.30
2024-03-12T13:59:13.622Z,29.87
2024-03-12T14:01:42.099Z,28.90
2024-03-12T14:04:12.948Z,29.50
2024-03-12T14:06:41.261Z,32.50
2024-03-12T14:09:13.274Z,26.05
2024-03-12T14:11:40.965Z,27.77
2024-03-12T14:14:11.224Z,27.87
2024-03-12T14:16:38.581Z,28.17
2024-03-12T14:19:05.690Z,25.27
2024-03-12T14:21:34.099Z,25.93
2024-03-12T14:24:04.046Z,25.83
2024-03-12T14:26:31.473Z,27.30
2024-03-12T14:28:58.552Z,28.27
2024-03-12T14:31:26.388Z,27.07
2024-03-12T14:33:53.840Z,27.53
2024-03-12T14:36:23.915Z,28.53
2024-03-12T14:38:54.293Z,28.47
2024-03-12T14:41:23.442Z,29.50
2024-03-12T14:43:50.707Z,29.63
2024-03-12T14:46:21.590Z,26.30
2024-03-12T14:48:49.811Z,28.97
2024-03-12T14:51:16.870Z,25.67
2024-03-12T14:53:44.124Z,30.77
2024-03-12T14:56:11.260Z,27.30
2024-03-12T14:58:38.403Z,27.87
2024-03-12T15:01:07.505Z,30.07
2024-03-12T15:03:35.833Z,29.07
2024-03-12T15:06:04.444Z,28.83
2024-03-12T15:08:31.749Z,30.93
2024-03-12T15:10:59.079Z,30.23
2024-03-12T15:13:26.277Z,31.20
2024-03-12T15:15:53.408Z,31.47
2024-03-12T15:18:24.702Z,31.20
2024-03-12T15:20:51.886Z,29.27
2024-03-12T15:23:19.012Z,31.43
2024-03-12T15:25:46.608Z,30.63
2024-03-12T15:28:13.802Z,32.00
2024-03-12T15:30:43.942Z,31.20
2024-03-12T15:33:12.256Z,30.53
2024-03-12T15:35:40.487Z,27.60
2024-03-12T15:38:07.583Z,29.23
2024-03-12T15:40:36.026Z,26.93
2024-03-12T15:43:05.048Z,26.73
2024-03-12T15:45:32.938Z,23.50
2024-03-12T15:48:03.163Z,24.80
2024-03-12T15:50:30.339Z,24.63
2024-03-12T15:52:57.943Z,22.37
2024-03-12T15:55:27.108Z,22.77
2024-03-12T15:57:55.961Z,22.77
2024-03-12T16:00:23.752Z,23.27
2024-03-12T16:02:52.306Z,19.20
2024-03-12T16:05:22.370Z,19.83
2024-03-12T16:07:50.944Z,19.87
2024-03-12T16:10:24.053Z,18.93
2024-03-12T16:12:51.373Z,16.60
2024-03-12T16:15:24.254Z,16.40
2024-03-12T16:17:53.807Z,17.23
2024-03-12T16:20:23.131Z,16.37
2024-03-12T16:22:50.234Z,15.77
2024-03-12T16:25:18.827Z,16.70
2024-03-12T16:27:49.284Z,16.83
2024-03-12T16:30:16.879Z,16.43
2024-03-12T16:32:45.751Z,15.77
2024-03-12T16:35:15.566Z,15.13
2024-03-12T16:37:44.135Z,15.73
2024-03-12T16:40:12.376Z,16.97
2024-03-12T16:42:39.665Z,14.33
2024-03-12T16:45:07.701Z,14.43
2024-03-12T16:47:35.565Z,16.53
2024-03-12T16:50:09.789Z,14.70
2024-03-12T16:52:40.333Z,14.77
2024-03-12T16:55:08.971Z,14.53
2024-03-12T16:57:37.021Z,14.67
2024-03-12T17:00:11.564Z,14.97
2024-03-12T17:02:45.688Z,14.23
2024-03-12T17:05:23.910Z,13.57
2024-03-12T17:08:02.159Z,14.67
2024-03-12T17:10:30.015Z,15.33
2024-03-12T17:12:57.747Z,14.53
2024-03-12T17:15:25.373Z,13.93
2024-03-12T17:17:53.582Z,15.13
2024-03-12T17:20:21.192Z,14.80
2024-03-12T17:22:49.130Z,15.30
2024-03-12T17:25:20.112Z,13.53
2024-03-12T17:27:50.307Z,14.27
2024-03-12T17:30:18.484Z,16.67
2024-03-12T17:32:47.538Z,14.13
2024-03-12T17:35:22.277Z,16.47
2024-03-12T17:37:56.890Z,14.87
2024-03-12T17:40:25.493Z,14.00
2024-03-12T17:42:53.425Z,15.60
2024-03-12T17:45:25.208Z,14.73
2024-03-12T17:47:58.683Z,15.27
2024-03-12T17:50:31.988Z,13.40
2024-03-12T17:53:03.167Z,14.33
2024-03-12T17:55:31.000Z,13.90
2024-03-12T17:58:01.783Z,14.97
2024-03-12T18:00:30.964Z,13.93
2024-03-12T18:02:58.646Z,16.67
2024-03-12T18:05:26.395Z,16.73
2024-03-12T18:07:54.648Z,16.73
2024-03-12T18:10:32.936Z,17.30
2024-03-12T18:13:00.812Z,16.10
2024-03-12T18:15:29.337Z,14.43
2024-03-12T18:17:56.843Z,15.03
2024-03-12T18:20:34.813Z,15.63
2024-03-12T18:23:02.136Z,16.73
2024-03-12T18:25:31.559Z,14.87
2024-03-12T18:27:59.260Z,14.43
2024-03-12T18:30:27.610Z,15.63
2024-03-12T18:32:58.167Z,15.00
2024-03-12T18:35:25.722Z,15.30
2024-03-12T18:37:52.831Z,14.83
2024-03-12T18:40:23.929Z,15.73
2024-03-12T18:42:52.144Z,15.03
2024-03-12T18:45:20.728Z,14.97
2024-03-12T18:47:54.493Z,15.57
2024-03-12T18:50:25.531Z,15.47
2024-03-12T18:52:55.235Z,13.30
2024-03-12T18:55:28.122Z,12.77
2024-03-12T18:57:55.788Z,15.73
2024-03-12T19:00:25.033Z,15.47
2024-03-12T19:02:54.010Z,15.67
2024-03-12T19:05:25.913Z,14.67
2024-03-12T19:07:56.425Z,15.17
2024-03-12T19:10:29.227Z,18.27
2024-03-12T19:12:58.836Z,16.93
2024-03-12T19:15:34.255Z,14.70
2024-03-12T19:18:14.338Z,14.80
2024-03-12T19:20:42.481Z,15.23
2024-03-12T19:23:10.409Z,15.23
2024-03-12T19:25:37.646Z,14.13
2024-03-12T19:28:04.970Z,15.30
2024-03-12T19:30:32.416Z,15.20
2024-03-12T19:32:59.676Z,12.93
2024-03-12T19:35:27.948Z,13.77
2024-03-12T19:37:56.920Z,15.03
2024-03-12T19:40:24.781Z,13.00
2024-03-12T19:42:54.331Z,14.07
2024-03-12T19:45:24.357Z,14.73
2024-03-12T19:47:52.821Z,12.67
2024-03-12T19:50:26.147Z,13.33
2024-03-12T19:52:56.263Z,11.90
2024-03-12T19:55:30.901Z,14.13
2024-03-12T19:58:02.588Z,12.93
2024-03-12T20:00:33.934Z,13.70
2024-03-12T20:03:07.846Z,13.40
2024-03-12T20:05:36.776Z,12.90
2024-03-12T20:08:10.500Z,13.73
2024-03-12T20:10:38.309Z,11.97
2024-03-12T20:13:06.753Z,13.03
2024-03-12T20:15:35.062Z,13.13
2024-03-12T20:18:02.810Z,12.30
2024-03-12T20:20:30.308Z,12.50
2024-03-12T20:22:59.101Z,13.83
2024-03-12T20:25:27.720Z,13.47
2024-03-12T20:27:56.393Z,12.53
2024-03-12T20:30:29.203Z,12.83
2024-03-12T20:33:01.268Z,15.10
2024-03-12T20:35:30.870Z,14.53
2024-03-12T20:37:58.923Z,13.40
2024-03-12T20:40:27.552Z,12.37
2024-03-12T20:42:56.194Z,12.30
2024-03-12T20:45:23.585Z,13.20
2024-03-12T20:47:52.849Z,12.97
2024-03-12T20:50:23.148Z,13.20
2024-03-12T20:52:51.271Z,12.43
2024-03-12T20:55:19.969Z,12.97
2024-03-12T20:57:49.443Z,11.43
2024-03-12T21:00:29.487Z,11.30
2024-03-12T21:02:57.057Z,12.93
2024-03-12T21:05:24.142Z,12.00
2024-03-12T21:07:53.441Z,12.63
2024-03-12T21:10:21.213Z,11.13
2024-03-12T21:12:52.366Z,12.03
2024-03-12T21:15:23.716Z,10.73
2024-03-12T21:17:51.249Z,11.60
2024-03-12T21:20:33.675Z,12.43
2024-03-12T21:23:03.797Z,13.43
2024-03-12T21:25:31.060Z,11.07
2024-03-12T21:27:59.005Z,10.47
2024-03-12T21:30:26.482Z,11.03
2024-03-12T21:32:56.969Z,11.70
2024-03-12T21:35:27.117Z,11.03
2024-03-12T21:37:58.552Z,12.27
2024-03-12T21:40:26.303Z,12.07
2024-03-12T21:42:53.583Z,12.83
2024-03-12T21:45:21.806Z,11.40
2024-03-12T21:47:49.536Z,10.57
2024-03-12T21:50:17.492Z,9.50
2024-03-12T21:52:46.463Z,9.63
2024-03-12T21:55:14.242Z,10.67
2024-03-12T21:57:44.267Z,11.97
2024-03-12T22:00:21.186Z,11.03
2024-03-12T22:02:49.557Z,10.43
2024-03-12T22:05:17.916Z,10.00
2024-03-12T22:07:45.695Z,9.07
2024-03-12T22:10:13.621Z,9.80
2024-03-12T22:12:42.282Z,9.97
2024-03-12T22:15:13.273Z,10.97
2024-03-12T22:17:47.150Z,10.43
2024-03-12T22:20:16.642Z,10.23
2024-03-12T22:22:50.487Z,9.13
2024-03-12T22:25:20.063Z,10.07
2024-03-12T22:27:49.897Z,8.27
2024-03-12T22:30:18.018Z,8.50
2024-03-12T22:32:46.623Z,8.20
2024-03-12T22:35:14.830Z,8.27
2024-03-12T22:37:44.802Z,8.80
2024-03-12T22:40:14.018Z,8.27
2024-03-12T22:42:43.964Z,8.97
2024-03-12T22:45:12.966Z,8.57
2024-03-12T22:47:44.238Z,8.40
2024-03-12T22:50:13.297Z,9.13
2024-03-12T22:52:46.471Z,8.40
2024-03-12T22:55:14.739Z,8.83
2024-03-12T22:57:42.634Z,9.90
2024-03-12T23:00:37.095Z,8.90
2024-03-12T23:03:06.340Z,9.67
2024-03-12T23:05:35.048Z,10.23
2024-03-12T23:08:07.210Z,9.73
2024-03-12T23:10:37.008Z,10.20
2024-03-12T23:13:05.273Z,10.87
2024-03-12T23:15:36.225Z,9.90
2024-03-12T23:18:04.852Z,10.67
2024-03-12T23:20:33.448Z,10.43
2024-03-12T23:23:01.613Z,10.10
2024-03-12T23:25:30.233Z,12.63
2024-03-12T23:27:57.335Z,12.20
2024-03-12T23:30:26.874Z,11.10
2024-03-12T23:32:59.088Z,10.83
2024-03-12T23:35:28.288Z,11.03
2024-03-12T23:37:58.028Z,11.00
2024-03-12T23:40:26.679Z,11.63
2024-03-12T23:42:57.215Z,14.67
2024-03-12T23:45:24.490Z,11.57
2024-03-12T23:47:52.851Z,13.77
2024-03-12T23:50:20.958Z,12.57
2024-03-12T23:52:50.019Z,12.33
2024-03-12T23:55:17.760Z,12.97
2024-03-12T23:57:45.109Z,14.03
